Little Deer Isle, Maine
Current Conditions -  °F | °C
As of 7:55 PM on Wednesday 22 Oct 2014 (Local Time) from KBHB Reporting Station
Overcast Overcast  
Wind Chill: 39°   Ceiling: 1200
Heat Index: 46°   Visibility: 10mi
Dew Point: 46°   Wind: 21mph
Humidity: 100%   Direction: 30°NNE
Pressure: 30.09"   Gusts: 28mph
Location:  44.29°N, 68.7°W
Report Text: KBHB 222355Z AUTO 03018G24KT 10SM OVC012 08/08 A3009 RMK AO1 60018 10090 20080 401100080 57010
Loading
Personal Weather Stations






























Interactive Weather Map
Tropical Storm Tracking
New forecast layout! Learn more

10-Day Weather Forecast

Advertisements
Track Severe Weather on mobile